Casper-Natrona County International Airport Casper US
ICAO: KCPR
IATA: CPR
Category: Large
Scheduled Services: Yes

Elevation: 5350 ft
TransAlt. 18000 ft.

Airport Communications:
CASPER APP/DEP:119
VFR ADVSY SVC:118.3
ATIS:126.15
CTAF:118.3
CASPER GND/CLNC DEL:121.9
CASPER RDO:122.2
CASPER TWR:118.3
UNICOM:122.95

KCPR Zoom In..

Runways:

(A) RW 03 length 10165 ft width 150 ft
ILS 111.30 / hdg 32

(B) RW 08 length 8679 ft width 150 ft
ILS 110.30 / hdg 77

(C) RW 21 length 10165 ft width 150 ft
---- / hdg 212

(D) RW 26 length 8679 ft width 150 ft
---- / hdg 257

Location; KCPR
Day. 20 / Time. 09.53 Zulu
* Altimeter: 29.93
* Temperature: 03° c. 37.4°f.
* Wind from: 060° Speed 06 kn.
Dewpoint: -02° c.
Visibility: 10 Statute Miles.
Clouds: Clear (automated report).

KCPR 200953Z AUTO 06006KT 10SM CLR 03/M02 A2993 RMK AO2 SLP107 T00331022


Wind From 060°
Speed 06 kn.

  YouTube Music Video
 
jpsmedia.com for Web Design  worldairports.se 2018   terms of use